sensor_id;sensor_type;location;lat;lon;timestamp;temperature;humidity
9450;DHT22;4763;48.370;10.874;2023-04-25T00:01:21;6.80;99.90
9450;DHT22;4763;48.370;10.874;2023-04-25T00:04:10;6.90;99.90
9450;DHT22;4763;48.370;10.874;2023-04-25T00:06:59;6.90;99.90
9450;DHT22;4763;48.370;10.874;2023-04-25T00:09:47;6.90;99.90
9450;DHT22;4763;48.370;10.874;2023-04-25T00:12:34;6.90;99.90
9450;DHT22;4763;48.370;10.874;2023-04-25T00:15:21;6.90;99.90
9450;DHT22;4763;48.370;10.874;2023-04-25T00:18:10;6.90;99.90
9450;DHT22;4763;48.370;10.874;2023-04-25T00:20:58;6.90;99.90
9450;DHT22;4763;48.370;10.874;2023-04-25T00:23:45;6.90;99.90
9450;DHT22;4763;48.370;10.874;2023-04-25T00:26:33;6.80;99.90
9450;DHT22;4763;48.370;10.874;2023-04-25T00:29:21;6.80;99.90
9450;DHT22;4763;48.370;10.874;2023-04-25T00:32:08;6.70;99.90
9450;DHT22;4763;48.370;10.874;2023-04-25T00:34:55;6.70;99.90
9450;DHT22;4763;48.370;10.874;2023-04-25T00:37:44;6.60;99.90
9450;DHT22;4763;48.370;10.874;2023-04-25T00:40:31;6.70;99.90
9450;DHT22;4763;48.370;10.874;2023-04-25T00:43:19;6.60;99.90
9450;DHT22;4763;48.370;10.874;2023-04-25T00:46:06;6.60;99.90
9450;DHT22;4763;48.370;10.874;2023-04-25T00:48:53;6.60;99.90
9450;DHT22;4763;48.370;10.874;2023-04-25T00:51:40;6.60;99.90
9450;DHT22;4763;48.370;10.874;2023-04-25T00:54:29;6.60;99.90
9450;DHT22;4763;48.370;10.874;2023-04-25T00:57:16;6.60;99.90
9450;DHT22;4763;48.370;10.874;2023-04-25T01:00:05;6.60;99.90
9450;DHT22;4763;48.370;10.874;2023-04-25T01:02:52;6.60;99.90
9450;DHT22;4763;48.370;10.874;2023-04-25T01:05:40;6.60;99.90
9450;DHT22;4763;48.370;10.874;2023-04-25T01:08:28;6.60;99.90
9450;DHT22;4763;48.370;10.874;2023-04-25T01:11:16;6.50;99.90
9450;DHT22;4763;48.370;10.874;2023-04-25T01:14:03;6.60;99.90
9450;DHT22;4763;48.370;10.874;2023-04-25T01:16:51;6.60;99.90
9450;DHT22;4763;48.370;10.874;2023-04-25T01:19:39;6.50;99.90
9450;DHT22;4763;48.370;10.874;2023-04-25T01:22:27;6.60;99.90
9450;DHT22;4763;48.370;10.874;2023-04-25T01:25:15;6.60;99.90
9450;DHT22;4763;48.370;10.874;2023-04-25T01:28:04;6.60;99.90
9450;DHT22;4763;48.370;10.874;2023-04-25T01:30:51;6.60;99.90
9450;DHT22;4763;48.370;10.874;2023-04-25T01:33:38;6.60;99.90
9450;DHT22;4763;48.370;10.874;2023-04-25T01:36:25;6.50;99.90
9450;DHT22;4763;48.370;10.874;2023-04-25T01:39:15;6.60;99.90
9450;DHT22;4763;48.370;10.874;2023-04-25T01:42:02;6.50;99.90
9450;DHT22;4763;48.370;10.874;2023-04-25T01:44:49;6.50;99.90
9450;DHT22;4763;48.370;10.874;2023-04-25T01:47:36;6.50;99.90
9450;DHT22;4763;48.370;10.874;2023-04-25T01:50:25;6.50;99.90
9450;DHT22;4763;48.370;10.874;2023-04-25T01:53:13;6.50;99.90
9450;DHT22;4763;48.370;10.874;2023-04-25T01:56:01;6.40;99.90
9450;DHT22;4763;48.370;10.874;2023-04-25T01:58:48;6.40;99.90
9450;DHT22;4763;48.370;10.874;2023-04-25T02:01:35;6.30;99.90
9450;DHT22;4763;48.370;10.874;2023-04-25T02:04:23;6.40;99.90
9450;DHT22;4763;48.370;10.874;2023-04-25T02:07:10;6.40;99.90
9450;DHT22;4763;48.370;10.874;2023-04-25T02:09:57;6.40;99.90
9450;DHT22;4763;48.370;10.874;2023-04-25T02:12:45;6.30;99.90
9450;DHT22;4763;48.370;10.874;2023-04-25T02:15:33;6.40;99.90
9450;DHT22;4763;48.370;10.874;2023-04-25T02:18:20;6.40;99.90
9450;DHT22;4763;48.370;10.874;2023-04-25T02:21:07;6.40;99.90
9450;DHT22;4763;48.370;10.874;2023-04-25T02:23:54;6.40;99.90
9450;DHT22;4763;48.370;10.874;2023-04-25T02:26:41;6.40;99.90
9450;DHT22;4763;48.370;10.874;2023-04-25T02:29:30;6.40;99.90
9450;DHT22;4763;48.370;10.874;2023-04-25T02:32:17;6.50;99.90
9450;DHT22;4763;48.370;10.874;2023-04-25T02:35:05;6.50;99.90
9450;DHT22;4763;48.370;10.874;2023-04-25T02:37:52;6.60;99.90
9450;DHT22;4763;48.370;10.874;2023-04-25T02:40:39;6.60;99.90
9450;DHT22;4763;48.370;10.874;2023-04-25T02:43:27;6.60;99.90
9450;DHT22;4763;48.370;10.874;2023-04-25T02:46:15;6.60;99.90
9450;DHT22;4763;48.370;10.874;2023-04-25T02:49:02;6.70;99.90
9450;DHT22;4763;48.370;10.874;2023-04-25T02:51:49;6.80;99.90
9450;DHT22;4763;48.370;10.874;2023-04-25T02:54:36;7.00;99.90
9450;DHT22;4763;48.370;10.874;2023-04-25T02:57:23;7.00;99.90
9450;DHT22;4763;48.370;10.874;2023-04-25T03:00:11;7.10;99.90
9450;DHT22;4763;48.370;10.874;2023-04-25T03:03:01;7.10;99.90
9450;DHT22;4763;48.370;10.874;2023-04-25T03:05:48;7.20;99.90
9450;DHT22;4763;48.370;10.874;2023-04-25T03:08:36;7.20;99.90
9450;DHT22;4763;48.370;10.874;2023-04-25T03:11:24;7.10;99.90
9450;DHT22;4763;48.370;10.874;2023-04-25T03:14:11;7.20;99.90
9450;DHT22;4763;48.370;10.874;2023-04-25T03:16:58;7.20;99.90
9450;DHT22;4763;48.370;10.874;2023-04-25T03:19:48;7.10;99.90
9450;DHT22;4763;48.370;10.874;2023-04-25T03:22:35;7.10;99.90
9450;DHT22;4763;48.370;10.874;2023-04-25T03:25:22;7.10;99.90
9450;DHT22;4763;48.370;10.874;2023-04-25T03:28:09;7.10;99.90
9450;DHT22;4763;48.370;10.874;2023-04-25T03:30:56;7.10;99.90
9450;DHT22;4763;48.370;10.874;2023-04-25T03:33:43;7.10;99.90
9450;DHT22;4763;48.370;10.874;2023-04-25T03:36:31;7.20;99.90
9450;DHT22;4763;48.370;10.874;2023-04-25T03:39:19;7.10;99.90
9450;DHT22;4763;48.370;10.874;2023-04-25T03:42:06;7.10;99.90
9450;DHT22;4763;48.370;10.874;2023-04-25T03:44:53;7.10;99.90
9450;DHT22;4763;48.370;10.874;2023-04-25T03:47:40;7.10;99.90
9450;DHT22;4763;48.370;10.874;2023-04-25T03:50:27;7.10;99.90
9450;DHT22;4763;48.370;10.874;2023-04-25T03:53:15;7.00;99.90
9450;DHT22;4763;48.370;10.874;2023-04-25T03:56:02;7.00;99.90
9450;DHT22;4763;48.370;10.874;2023-04-25T03:58:50;7.00;99.90
9450;DHT22;4763;48.370;10.874;2023-04-25T04:01:37;7.00;99.90
9450;DHT22;4763;48.370;10.874;2023-04-25T04:04:24;7.00;99.90
9450;DHT22;4763;48.370;10.874;2023-04-25T04:07:11;7.00;99.90
9450;DHT22;4763;48.370;10.874;2023-04-25T04:09:59;7.00;99.90
9450;DHT22;4763;48.370;10.874;2023-04-25T04:12:46;7.00;99.90
9450;DHT22;4763;48.370;10.874;2023-04-25T04:15:33;7.10;99.90
9450;DHT22;4763;48.370;10.874;2023-04-25T04:18:20;7.00;99.90
9450;DHT22;4763;48.370;10.874;2023-04-25T04:21:07;7.00;99.90
9450;DHT22;4763;48.370;10.874;2023-04-25T04:23:55;7.00;99.90
9450;DHT22;4763;48.370;10.874;2023-04-25T04:26:44;7.00;99.90
9450;DHT22;4763;48.370;10.874;2023-04-25T04:29:32;7.00;99.90
9450;DHT22;4763;48.370;10.874;2023-04-25T04:32:19;7.00;99.90
9450;DHT22;4763;48.370;10.874;2023-04-25T04:35:07;7.00;99.90
9450;DHT22;4763;48.370;10.874;2023-04-25T04:37:54;7.00;99.90
9450;DHT22;4763;48.370;10.874;2023-04-25T04:40:41;7.10;99.90
9450;DHT22;4763;48.370;10.874;2023-04-25T04:43:30;7.10;99.90
9450;DHT22;4763;48.370;10.874;2023-04-25T04:46:19;7.10;99.90
9450;DHT22;4763;48.370;10.874;2023-04-25T04:49:06;7.10;99.90
9450;DHT22;4763;48.370;10.874;2023-04-25T04:51:53;7.10;99.90
9450;DHT22;4763;48.370;10.874;2023-04-25T04:54:40;7.10;99.90
9450;DHT22;4763;48.370;10.874;2023-04-25T04:57:28;7.10;99.90
9450;DHT22;4763;48.370;10.874;2023-04-25T05:00:17;7.10;99.90
9450;DHT22;4763;48.370;10.874;2023-04-25T05:03:04;7.10;99.90
9450;DHT22;4763;48.370;10.874;2023-04-25T05:05:51;7.10;99.90
9450;DHT22;4763;48.370;10.874;2023-04-25T05:08:38;7.10;99.90
9450;DHT22;4763;48.370;10.874;2023-04-25T05:11:25;7.10;99.90
9450;DHT22;4763;48.370;10.874;2023-04-25T05:14:12;7.10;99.90
9450;DHT22;4763;48.370;10.874;2023-04-25T05:17:01;7.10;99.90
9450;DHT22;4763;48.370;10.874;2023-04-25T05:19:50;7.00;99.90
9450;DHT22;4763;48.370;10.874;2023-04-25T05:22:37;7.00;99.90
9450;DHT22;4763;48.370;10.874;2023-04-25T05:25:24;7.00;99.90
9450;DHT22;4763;48.370;10.874;2023-04-25T05:28:12;7.00;99.90
9450;DHT22;4763;48.370;10.874;2023-04-25T05:30:59;7.00;99.90
9450;DHT22;4763;48.370;10.874;2023-04-25T05:33:48;7.00;99.90
9450;DHT22;4763;48.370;10.874;2023-04-25T05:36:35;7.00;99.90
9450;DHT22;4763;48.370;10.874;2023-04-25T05:39:22;7.00;99.90
9450;DHT22;4763;48.370;10.874;2023-04-25T05:42:09;7.10;99.90
9450;DHT22;4763;48.370;10.874;2023-04-25T05:44:56;7.20;99.90
9450;DHT22;4763;48.370;10.874;2023-04-25T05:47:43;7.30;99.90
9450;DHT22;4763;48.370;10.874;2023-04-25T05:50:32;7.30;99.90
9450;DHT22;4763;48.370;10.874;2023-04-25T05:53:19;7.40;99.90
9450;DHT22;4763;48.370;10.874;2023-04-25T05:56:07;7.40;99.90
9450;DHT22;4763;48.370;10.874;2023-04-25T05:58:55;7.50;99.90
9450;DHT22;4763;48.370;10.874;2023-04-25T06:01:42;7.50;99.90
9450;DHT22;4763;48.370;10.874;2023-04-25T06:04:29;7.50;99.90
9450;DHT22;4763;48.370;10.874;2023-04-25T06:07:17;7.50;99.90
9450;DHT22;4763;48.370;10.874;2023-04-25T06:10:06;7.50;99.90
9450;DHT22;4763;48.370;10.874;2023-04-25T06:12:53;7.50;99.90
9450;DHT22;4763;48.370;10.874;2023-04-25T06:15:40;7.50;99.90
9450;DHT22;4763;48.370;10.874;2023-04-25T06:18:27;7.50;99.90
9450;DHT22;4763;48.370;10.874;2023-04-25T06:21:14;7.50;99.90
9450;DHT22;4763;48.370;10.874;2023-04-25T06:24:03;7.50;99.90
9450;DHT22;4763;48.370;10.874;2023-04-25T06:26:50;7.70;99.90
9450;DHT22;4763;48.370;10.874;2023-04-25T06:29:37;8.00;99.90
9450;DHT22;4763;48.370;10.874;2023-04-25T06:32:24;8.30;99.90
9450;DHT22;4763;48.370;10.874;2023-04-25T06:35:13;8.40;99.90
9450;DHT22;4763;48.370;10.874;2023-04-25T06:38:00;8.60;99.90
9450;DHT22;4763;48.370;10.874;2023-04-25T06:40:49;8.60;99.90
9450;DHT22;4763;48.370;10.874;2023-04-25T06:43:36;8.50;99.90
9450;DHT22;4763;48.370;10.874;2023-04-25T06:46:24;8.50;99.90
9450;DHT22;4763;48.370;10.874;2023-04-25T06:49:11;8.30;99.90
9450;DHT22;4763;48.370;10.874;2023-04-25T06:51:58;8.40;99.90
9450;DHT22;4763;48.370;10.874;2023-04-25T06:54:45;8.30;99.90
9450;DHT22;4763;48.370;10.874;2023-04-25T06:57:34;8.20;99.90
9450;DHT22;4763;48.370;10.874;2023-04-25T07:00:21;8.10;99.90
9450;DHT22;4763;48.370;10.874;2023-04-25T07:03:08;8.10;99.90
9450;DHT22;4763;48.370;10.874;2023-04-25T07:05:55;8.10;99.90
9450;DHT22;4763;48.370;10.874;2023-04-25T07:08:42;8.20;99.90
9450;DHT22;4763;48.370;10.874;2023-04-25T07:11:29;8.20;99.90
9450;DHT22;4763;48.370;10.874;2023-04-25T07:14:18;8.30;99.90
9450;DHT22;4763;48.370;10.874;2023-04-25T07:17:05;8.40;99.90
9450;DHT22;4763;48.370;10.874;2023-04-25T07:19:52;8.50;99.90
9450;DHT22;4763;48.370;10.874;2023-04-25T07:22:39;8.40;99.90
9450;DHT22;4763;48.370;10.874;2023-04-25T07:25:27;8.60;99.90
9450;DHT22;4763;48.370;10.874;2023-04-25T07:28:14;9.00;99.90
9450;DHT22;4763;48.370;10.874;2023-04-25T07:31:03;9.30;99.90
9450;DHT22;4763;48.370;10.874;2023-04-25T07:33:50;9.50;99.90
9450;DHT22;4763;48.370;10.874;2023-04-25T07:36:37;9.70;99.90
9450;DHT22;4763;48.370;10.874;2023-04-25T07:39:25;9.90;99.90
9450;DHT22;4763;48.370;10.874;2023-04-25T07:42:12;10.00;99.90
9450;DHT22;4763;48.370;10.874;2023-04-25T07:45:00;10.30;99.90
9450;DHT22;4763;48.370;10.874;2023-04-25T07:47:48;10.40;99.90
9450;DHT22;4763;48.370;10.874;2023-04-25T07:50:36;10.50;99.90
9450;DHT22;4763;48.370;10.874;2023-04-25T07:53:23;10.60;99.90
9450;DHT22;4763;48.370;10.874;2023-04-25T07:56:10;10.60;99.90
9450;DHT22;4763;48.370;10.874;2023-04-25T07:58:57;10.50;99.90
9450;DHT22;4763;48.370;10.874;2023-04-25T08:01:44;10.60;99.90
9450;DHT22;4763;48.370;10.874;2023-04-25T08:04:32;10.70;99.90
9450;DHT22;4763;48.370;10.874;2023-04-25T08:07:19;11.00;99.90
9450;DHT22;4763;48.370;10.874;2023-04-25T08:10:07;11.20;99.90
9450;DHT22;4763;48.370;10.874;2023-04-25T08:12:54;11.40;99.90
9450;DHT22;4763;48.370;10.874;2023-04-25T08:15:41;11.70;99.90
9450;DHT22;4763;48.370;10.874;2023-04-25T08:18:28;11.90;99.90
9450;DHT22;4763;48.370;10.874;2023-04-25T08:21:17;11.90;99.90
9450;DHT22;4763;48.370;10.874;2023-04-25T08:24:05;11.50;99.90
9450;DHT22;4763;48.370;10.874;2023-04-25T08:26:52;11.70;99.90
9450;DHT22;4763;48.370;10.874;2023-04-25T08:29:39;12.30;99.90
9450;DHT22;4763;48.370;10.874;2023-04-25T08:32:26;12.50;99.90
9450;DHT22;4763;48.370;10.874;2023-04-25T08:35:13;12.60;99.90
9450;DHT22;4763;48.370;10.874;2023-04-25T08:38:03;12.60;99.90
9450;DHT22;4763;48.370;10.874;2023-04-25T08:40:51;12.90;99.90
9450;DHT22;4763;48.370;10.874;2023-04-25T08:43:42;13.10;99.90
9450;DHT22;4763;48.370;10.874;2023-04-25T08:46:30;13.20;99.90
9450;DHT22;4763;48.370;10.874;2023-04-25T08:49:18;13.40;99.90
9450;DHT22;4763;48.370;10.874;2023-04-25T08:52:06;13.50;99.90
9450;DHT22;4763;48.370;10.874;2023-04-25T08:54:55;13.70;99.90
9450;DHT22;4763;48.370;10.874;2023-04-25T08:57:43;13.50;99.90
9450;DHT22;4763;48.370;10.874;2023-04-25T09:00:31;13.40;99.90
9450;DHT22;4763;48.370;10.874;2023-04-25T09:03:18;13.00;99.90
9450;DHT22;4763;48.370;10.874;2023-04-25T09:06:05;12.30;99.90
9450;DHT22;4763;48.370;10.874;2023-04-25T09:08:52;12.00;99.90
9450;DHT22;4763;48.370;10.874;2023-04-25T09:11:41;11.70;99.90
9450;DHT22;4763;48.370;10.874;2023-04-25T09:14:28;11.80;99.90
9450;DHT22;4763;48.370;10.874;2023-04-25T09:17:15;12.00;99.90
9450;DHT22;4763;48.370;10.874;2023-04-25T09:20:08;12.10;99.90
9450;DHT22;4763;48.370;10.874;2023-04-25T09:23:03;12.30;99.90
9450;DHT22;4763;48.370;10.874;2023-04-25T09:25:52;12.40;99.90
9450;DHT22;4763;48.370;10.874;2023-04-25T09:28:40;12.50;99.90
9450;DHT22;4763;48.370;10.874;2023-04-25T09:31:28;12.30;99.90
9450;DHT22;4763;48.370;10.874;2023-04-25T09:34:16;12.20;99.90
9450;DHT22;4763;48.370;10.874;2023-04-25T09:37:03;12.20;99.90
9450;DHT22;4763;48.370;10.874;2023-04-25T09:39:52;11.90;99.90
9450;DHT22;4763;48.370;10.874;2023-04-25T09:42:41;11.80;99.90
9450;DHT22;4763;48.370;10.874;2023-04-25T09:45:30;11.80;99.90
9450;DHT22;4763;48.370;10.874;2023-04-25T09:48:18;11.80;99.90
9450;DHT22;4763;48.370;10.874;2023-04-25T09:51:07;11.60;99.90
9450;DHT22;4763;48.370;10.874;2023-04-25T09:53:54;11.20;99.90
9450;DHT22;4763;48.370;10.874;2023-04-25T09:56:42;11.00;99.90
9450;DHT22;4763;48.370;10.874;2023-04-25T09:59:30;10.70;99.90
9450;DHT22;4763;48.370;10.874;2023-04-25T10:02:21;10.70;99.90
9450;DHT22;4763;48.370;10.874;2023-04-25T10:05:08;10.40;99.90
9450;DHT22;4763;48.370;10.874;2023-04-25T10:07:56;9.70;99.90
9450;DHT22;4763;48.370;10.874;2023-04-25T10:10:44;9.50;99.90
9450;DHT22;4763;48.370;10.874;2023-04-25T10:13:32;9.20;99.90
9450;DHT22;4763;48.370;10.874;2023-04-25T10:16:21;9.20;99.90
9450;DHT22;4763;48.370;10.874;2023-04-25T10:19:10;9.10;99.90
9450;DHT22;4763;48.370;10.874;2023-04-25T10:22:05;9.50;99.90
9450;DHT22;4763;48.370;10.874;2023-04-25T10:24:55;9.60;99.90
9450;DHT22;4763;48.370;10.874;2023-04-25T10:27:42;9.90;99.90
9450;DHT22;4763;48.370;10.874;2023-04-25T10:30:30;10.10;99.90
9450;DHT22;4763;48.370;10.874;2023-04-25T10:33:17;10.30;99.90
9450;DHT22;4763;48.370;10.874;2023-04-25T10:36:11;10.50;99.90
9450;DHT22;4763;48.370;10.874;2023-04-25T10:39:03;10.80;99.90
9450;DHT22;4763;48.370;10.874;2023-04-25T10:41:55;11.10;99.90
9450;DHT22;4763;48.370;10.874;2023-04-25T10:45:00;10.90;99.90
9450;DHT22;4763;48.370;10.874;2023-04-25T10:47:48;10.90;99.90
9450;DHT22;4763;48.370;10.874;2023-04-25T10:50:38;11.00;99.90
9450;DHT22;4763;48.370;10.874;2023-04-25T10:53:30;11.20;99.90
9450;DHT22;4763;48.370;10.874;2023-04-25T10:56:20;11.40;99.90
9450;DHT22;4763;48.370;10.874;2023-04-25T10:59:09;11.50;99.90
9450;DHT22;4763;48.370;10.874;2023-04-25T11:01:56;11.70;99.90
9450;DHT22;4763;48.370;10.874;2023-04-25T11:04:44;11.90;99.90
9450;DHT22;4763;48.370;10.874;2023-04-25T11:07:37;12.00;99.90
9450;DHT22;4763;48.370;10.874;2023-04-25T11:10:27;12.00;99.90
9450;DHT22;4763;48.370;10.874;2023-04-25T11:13:14;11.80;99.90
9450;DHT22;4763;48.370;10.874;2023-04-25T11:16:02;11.80;99.90
9450;DHT22;4763;48.370;10.874;2023-04-25T11:18:50;11.90;99.90
9450;DHT22;4763;48.370;10.874;2023-04-25T11:21:37;12.00;99.90
9450;DHT22;4763;48.370;10.874;2023-04-25T11:24:26;11.90;99.90
9450;DHT22;4763;48.370;10.874;2023-04-25T11:27:15;11.90;99.90
9450;DHT22;4763;48.370;10.874;2023-04-25T11:30:13;11.80;99.90
9450;DHT22;4763;48.370;10.874;2023-04-25T11:33:01;11.70;99.90
9450;DHT22;4763;48.370;10.874;2023-04-25T11:35:49;11.10;99.90
9450;DHT22;4763;48.370;10.874;2023-04-25T11:38:36;10.10;99.90
9450;DHT22;4763;48.370;10.874;2023-04-25T11:41:23;9.70;99.90
9450;DHT22;4763;48.370;10.874;2023-04-25T11:44:12;9.10;99.90
9450;DHT22;4763;48.370;10.874;2023-04-25T11:47:02;9.00;99.90
9450;DHT22;4763;48.370;10.874;2023-04-25T11:49:53;9.00;99.90
9450;DHT22;4763;48.370;10.874;2023-04-25T11:52:41;8.70;99.90
9450;DHT22;4763;48.370;10.874;2023-04-25T11:55:30;8.60;99.90
9450;DHT22;4763;48.370;10.874;2023-04-25T11:58:17;8.30;99.90
9450;DHT22;4763;48.370;10.874;2023-04-25T12:01:06;8.20;99.90
9450;DHT22;4763;48.370;10.874;2023-04-25T12:03:53;8.10;99.90
9450;DHT22;4763;48.370;10.874;2023-04-25T12:06:42;8.20;99.90
9450;DHT22;4763;48.370;10.874;2023-04-25T12:09:30;8.20;99.90
9450;DHT22;4763;48.370;10.874;2023-04-25T12:12:17;8.20;99.90
9450;DHT22;4763;48.370;10.874;2023-04-25T12:15:09;8.30;99.90
9450;DHT22;4763;48.370;10.874;2023-04-25T12:17:58;8.30;99.90
9450;DHT22;4763;48.370;10.874;2023-04-25T12:20:48;8.40;99.90
9450;DHT22;4763;48.370;10.874;2023-04-25T12:23:38;8.30;99.90
9450;DHT22;4763;48.370;10.874;2023-04-25T12:26:46;8.20;99.90
9450;DHT22;4763;48.370;10.874;2023-04-25T12:29:34;8.30;99.90
9450;DHT22;4763;48.370;10.874;2023-04-25T12:32:21;8.30;99.90
9450;DHT22;4763;48.370;10.874;2023-04-25T12:35:10;8.10;99.90
9450;DHT22;4763;48.370;10.874;2023-04-25T12:37:57;8.00;99.90
9450;DHT22;4763;48.370;10.874;2023-04-25T12:40:44;7.90;99.90
9450;DHT22;4763;48.370;10.874;2023-04-25T12:43:31;7.80;99.90
9450;DHT22;4763;48.370;10.874;2023-04-25T12:46:18;7.90;99.90
9450;DHT22;4763;48.370;10.874;2023-04-25T12:49:05;8.00;99.90
9450;DHT22;4763;48.370;10.874;2023-04-25T12:51:55;8.10;99.90
9450;DHT22;4763;48.370;10.874;2023-04-25T12:54:42;8.00;99.90
9450;DHT22;4763;48.370;10.874;2023-04-25T12:57:29;8.00;99.90
9450;DHT22;4763;48.370;10.874;2023-04-25T13:00:17;7.90;99.90
9450;DHT22;4763;48.370;10.874;2023-04-25T13:03:05;7.90;99.90
9450;DHT22;4763;48.370;10.874;2023-04-25T13:05:52;8.00;99.90
9450;DHT22;4763;48.370;10.874;2023-04-25T13:08:41;8.00;99.90
9450;DHT22;4763;48.370;10.874;2023-04-25T13:11:28;8.10;99.90
9450;DHT22;4763;48.370;10.874;2023-04-25T13:14:15;8.10;99.90
9450;DHT22;4763;48.370;10.874;2023-04-25T13:17:02;8.30;99.90
9450;DHT22;4763;48.370;10.874;2023-04-25T13:19:50;8.40;99.90
9450;DHT22;4763;48.370;10.874;2023-04-25T13:22:37;8.30;99.90
9450;DHT22;4763;48.370;10.874;2023-04-25T13:25:26;8.40;99.90
9450;DHT22;4763;48.370;10.874;2023-04-25T13:28:13;8.30;99.90
9450;DHT22;4763;48.370;10.874;2023-04-25T13:31:01;8.60;99.90
9450;DHT22;4763;48.370;10.874;2023-04-25T13:33:48;8.90;99.90
9450;DHT22;4763;48.370;10.874;2023-04-25T13:36:35;9.00;99.90
9450;DHT22;4763;48.370;10.874;2023-04-25T13:39:22;9.10;99.90
9450;DHT22;4763;48.370;10.874;2023-04-25T13:42:10;9.00;99.90
9450;DHT22;4763;48.370;10.874;2023-04-25T13:44:57;8.90;99.90
9450;DHT22;4763;48.370;10.874;2023-04-25T13:47:44;8.70;99.90
9450;DHT22;4763;48.370;10.874;2023-04-25T13:50:31;8.80;99.90
9450;DHT22;4763;48.370;10.874;2023-04-25T13:53:18;8.80;99.90
9450;DHT22;4763;48.370;10.874;2023-04-25T13:56:06;8.70;99.90
9450;DHT22;4763;48.370;10.874;2023-04-25T13:58:55;8.60;99.90
9450;DHT22;4763;48.370;10.874;2023-04-25T14:01:42;8.60;99.90
9450;DHT22;4763;48.370;10.874;2023-04-25T14:04:29;8.60;99.90
9450;DHT22;4763;48.370;10.874;2023-04-25T14:07:16;8.30;99.90
9450;DHT22;4763;48.370;10.874;2023-04-25T14:10:05;8.30;99.90
9450;DHT22;4763;48.370;10.874;2023-04-25T14:12:53;8.30;99.90
9450;DHT22;4763;48.370;10.874;2023-04-25T14:15:41;8.20;99.90
9450;DHT22;4763;48.370;10.874;2023-04-25T14:18:28;8.20;99.90
9450;DHT22;4763;48.370;10.874;2023-04-25T14:21:15;8.30;99.90
9450;DHT22;4763;48.370;10.874;2023-04-25T14:24:02;8.30;99.90
9450;DHT22;4763;48.370;10.874;2023-04-25T14:26:50;8.40;99.90
9450;DHT22;4763;48.370;10.874;2023-04-25T14:29:38;8.40;99.90
9450;DHT22;4763;48.370;10.874;2023-04-25T14:32:26;8.60;99.90
9450;DHT22;4763;48.370;10.874;2023-04-25T14:35:13;8.50;99.90
9450;DHT22;4763;48.370;10.874;2023-04-25T14:38:00;8.60;99.90
9450;DHT22;4763;48.370;10.874;2023-04-25T14:40:47;8.60;99.90
9450;DHT22;4763;48.370;10.874;2023-04-25T14:43:34;8.90;99.90
9450;DHT22;4763;48.370;10.874;2023-04-25T14:46:22;9.00;99.90
9450;DHT22;4763;48.370;10.874;2023-04-25T14:49:11;9.30;99.90
9450;DHT22;4763;48.370;10.874;2023-04-25T14:51:58;9.10;99.90
9450;DHT22;4763;48.370;10.874;2023-04-25T14:54:45;9.20;99.90
9450;DHT22;4763;48.370;10.874;2023-04-25T14:57:33;9.30;99.90
9450;DHT22;4763;48.370;10.874;2023-04-25T15:00:20;9.10;99.90
9450;DHT22;4763;48.370;10.874;2023-04-25T15:03:08;8.90;99.90
9450;DHT22;4763;48.370;10.874;2023-04-25T15:05:59;8.80;99.90
9450;DHT22;4763;48.370;10.874;2023-04-25T15:08:46;9.00;99.90
9450;DHT22;4763;48.370;10.874;2023-04-25T15:11:33;9.00;99.90
9450;DHT22;4763;48.370;10.874;2023-04-25T15:14:20;9.10;99.90
9450;DHT22;4763;48.370;10.874;2023-04-25T15:17:07;9.00;99.90
9450;DHT22;4763;48.370;10.874;2023-04-25T15:19:54;9.10;99.90
9450;DHT22;4763;48.370;10.874;2023-04-25T15:22:43;9.10;99.90
9450;DHT22;4763;48.370;10.874;2023-04-25T15:25:31;9.20;99.90
9450;DHT22;4763;48.370;10.874;2023-04-25T15:28:18;9.30;99.90
9450;DHT22;4763;48.370;10.874;2023-04-25T15:31:07;9.20;99.90
9450;DHT22;4763;48.370;10.874;2023-04-25T15:33:54;9.30;99.90
9450;DHT22;4763;48.370;10.874;2023-04-25T15:36:41;9.30;99.90
9450;DHT22;4763;48.370;10.874;2023-04-25T15:39:30;9.40;99.90
9450;DHT22;4763;48.370;10.874;2023-04-25T15:42:17;9.40;99.90
9450;DHT22;4763;48.370;10.874;2023-04-25T15:45:06;9.40;99.90
9450;DHT22;4763;48.370;10.874;2023-04-25T15:47:55;9.30;99.90
9450;DHT22;4763;48.370;10.874;2023-04-25T15:50:42;9.30;99.90
9450;DHT22;4763;48.370;10.874;2023-04-25T15:53:29;9.40;99.90
9450;DHT22;4763;48.370;10.874;2023-04-25T15:56:17;9.60;99.90
9450;DHT22;4763;48.370;10.874;2023-04-25T15:59:05;9.70;99.90
9450;DHT22;4763;48.370;10.874;2023-04-25T16:01:52;9.90;99.90
9450;DHT22;4763;48.370;10.874;2023-04-25T16:04:39;10.00;99.90
9450;DHT22;4763;48.370;10.874;2023-04-25T16:07:26;10.10;99.90
9450;DHT22;4763;48.370;10.874;2023-04-25T16:10:13;10.10;99.90
9450;DHT22;4763;48.370;10.874;2023-04-25T16:13:05;10.20;99.90
9450;DHT22;4763;48.370;10.874;2023-04-25T16:15:52;10.20;99.90
9450;DHT22;4763;48.370;10.874;2023-04-25T16:18:39;10.20;99.90
9450;DHT22;4763;48.370;10.874;2023-04-25T16:21:27;10.10;99.90
9450;DHT22;4763;48.370;10.874;2023-04-25T16:24:14;10.10;99.90
9450;DHT22;4763;48.370;10.874;2023-04-25T16:27:01;9.90;99.90
9450;DHT22;4763;48.370;10.874;2023-04-25T16:29:50;9.40;99.90
9450;DHT22;4763;48.370;10.874;2023-04-25T16:32:37;9.00;99.90
9450;DHT22;4763;48.370;10.874;2023-04-25T16:35:25;8.70;99.90
9450;DHT22;4763;48.370;10.874;2023-04-25T16:38:15;8.50;99.90
9450;DHT22;4763;48.370;10.874;2023-04-25T16:41:02;8.40;99.90
9450;DHT22;4763;48.370;10.874;2023-04-25T16:43:49;8.40;99.90
9450;DHT22;4763;48.370;10.874;2023-04-25T16:46:38;8.40;99.90
9450;DHT22;4763;48.370;10.874;2023-04-25T16:49:25;8.40;99.90
9450;DHT22;4763;48.370;10.874;2023-04-25T16:52:12;8.30;99.90
9450;DHT22;4763;48.370;10.874;2023-04-25T16:55:00;8.30;99.90
9450;DHT22;4763;48.370;10.874;2023-04-25T16:57:48;8.30;99.90
9450;DHT22;4763;48.370;10.874;2023-04-25T17:00:35;8.30;99.90
9450;DHT22;4763;48.370;10.874;2023-04-25T17:03:24;8.20;99.90
9450;DHT22;4763;48.370;10.874;2023-04-25T17:06:11;8.20;99.90
9450;DHT22;4763;48.370;10.874;2023-04-25T17:08:58;8.20;99.90
9450;DHT22;4763;48.370;10.874;2023-04-25T17:11:46;8.20;99.90
9450;DHT22;4763;48.370;10.874;2023-04-25T17:14:33;8.10;99.90
9450;DHT22;4763;48.370;10.874;2023-04-25T17:17:21;8.20;99.90
9450;DHT22;4763;48.370;10.874;2023-04-25T17:20:10;8.20;99.90
9450;DHT22;4763;48.370;10.874;2023-04-25T17:22:58;8.20;99.90
9450;DHT22;4763;48.370;10.874;2023-04-25T17:25:45;8.30;99.90
9450;DHT22;4763;48.370;10.874;2023-04-25T17:28:33;8.30;99.90
9450;DHT22;4763;48.370;10.874;2023-04-25T17:31:20;8.30;99.90
9450;DHT22;4763;48.370;10.874;2023-04-25T17:34:07;8.40;99.90
9450;DHT22;4763;48.370;10.874;2023-04-25T17:36:57;8.30;99.90
9450;DHT22;4763;48.370;10.874;2023-04-25T17:39:44;8.20;99.90
9450;DHT22;4763;48.370;10.874;2023-04-25T17:42:32;8.10;99.90
9450;DHT22;4763;48.370;10.874;2023-04-25T17:45:19;8.10;99.90
9450;DHT22;4763;48.370;10.874;2023-04-25T17:48:06;8.10;99.90
9450;DHT22;4763;48.370;10.874;2023-04-25T17:50:53;8.00;99.90
9450;DHT22;4763;48.370;10.874;2023-04-25T17:53:42;7.90;99.90
9450;DHT22;4763;48.370;10.874;2023-04-25T17:56:29;7.80;99.90
9450;DHT22;4763;48.370;10.874;2023-04-25T17:59:16;7.80;99.90
9450;DHT22;4763;48.370;10.874;2023-04-25T18:02:04;7.90;99.90
9450;DHT22;4763;48.370;10.874;2023-04-25T18:04:51;7.80;99.90
9450;DHT22;4763;48.370;10.874;2023-04-25T18:07:39;7.70;99.90
9450;DHT22;4763;48.370;10.874;2023-04-25T18:10:27;7.70;99.90